Forest Hill, Louisiana
Current Conditions -  °F | °C
As of 9:53 AM on Friday 21 Nov 2014 (Local Time) from KAEX Reporting Station
Overcast Overcast  
Wind Chill: 60°   Ceiling: 7500
Heat Index: 60°   Visibility: 10mi
Dew Point: 50°   Wind: 12mph
Humidity: 69%   Direction: 120°ESE
Pressure: 30.26"   Gusts: NA
Location:  31.04°N, 92.53°W
Report Text: KAEX 211553Z 12010KT 10SM OVC075 16/10 A3026 RMK AO2 SLP249 T01560100
Loading
Personal Weather Stations






























Interactive Weather Map New forecast layout! Learn more

10-Day Weather Forecast

Advertisements
Track Severe Weather on mobile